createdAt,value
2022-10-17T00:00:37.954Z,13.20
2022-10-17T00:03:27.258Z,13.20
2022-10-17T00:05:55.227Z,13.63
2022-10-17T00:08:23.231Z,13.73
2022-10-17T00:10:58.394Z,13.55
2022-10-17T00:13:27.453Z,12.50
2022-10-17T00:15:55.501Z,12.35
2022-10-17T00:18:23.574Z,12.23
2022-10-17T00:20:53.238Z,10.80
2022-10-17T00:23:21.389Z,12.63
2022-10-17T00:25:49.151Z,11.93
2022-10-17T00:28:17.362Z,11.00
2022-10-17T00:30:45.102Z,11.27
2022-10-17T00:33:13.074Z,11.30
2022-10-17T00:35:40.920Z,11.63
2022-10-17T00:38:10.163Z,10.70
2022-10-17T00:40:38.042Z,9.70
2022-10-17T00:43:07.364Z,10.82
2022-10-17T00:45:35.115Z,10.50
2022-10-17T00:48:08.443Z,11.63
2022-10-17T00:50:39.678Z,10.82
2022-10-17T00:53:10.603Z,10.47
2022-10-17T00:55:43.274Z,11.15
2022-10-17T00:58:11.836Z,11.30
2022-10-17T01:00:39.797Z,10.65
2022-10-17T01:03:07.838Z,11.95
2022-10-17T01:05:35.859Z,11.57
2022-10-17T01:08:04.148Z,11.80
2022-10-17T01:10:41.575Z,10.50
2022-10-17T01:13:15.338Z,11.40
2022-10-17T01:15:53.497Z,11.35
2022-10-17T01:18:33.609Z,10.75
2022-10-17T01:21:22.753Z,11.82
2022-10-17T01:24:20.571Z,12.02
2022-10-17T01:27:19.265Z,12.90
2022-10-17T01:30:00.656Z,12.63
2022-10-17T01:32:35.446Z,13.02
2022-10-17T01:35:11.284Z,12.27
2022-10-17T01:37:45.028Z,12.18
2022-10-17T01:40:21.269Z,12.80
2022-10-17T01:42:56.656Z,12.55
2022-10-17T01:45:33.306Z,12.80
2022-10-17T01:48:08.010Z,13.70
2022-10-17T01:50:42.245Z,12.63
2022-10-17T01:53:15.650Z,13.05
2022-10-17T01:55:47.155Z,12.40
2022-10-17T01:58:20.261Z,11.07
2022-10-17T02:00:49.547Z,11.73
2022-10-17T02:03:21.592Z,11.43
2022-10-17T02:05:49.644Z,13.23
2022-10-17T02:08:26.882Z,13.63
2022-10-17T02:10:59.101Z,14.18
2022-10-17T02:13:41.910Z,13.15
2022-10-17T02:16:20.815Z,13.40
2022-10-17T02:19:02.176Z,11.75
2022-10-17T02:21:40.942Z,11.88
2022-10-17T02:24:16.818Z,11.25
2022-10-17T02:26:51.455Z,12.18
2022-10-17T02:29:22.765Z,11.85
2022-10-17T02:31:55.656Z,13.27
2022-10-17T02:34:28.881Z,11.20
2022-10-17T02:37:01.229Z,12.43
2022-10-17T02:39:31.032Z,12.68
2022-10-17T02:42:02.785Z,12.10
2022-10-17T02:44:33.424Z,12.38
2022-10-17T02:47:08.397Z,13.30
2022-10-17T02:49:41.639Z,13.43
2022-10-17T02:52:15.255Z,13.35
2022-10-17T02:54:46.974Z,13.18
2022-10-17T02:57:19.604Z,12.73
2022-10-17T02:59:48.625Z,13.07
2022-10-17T03:02:16.638Z,12.77
2022-10-17T03:04:46.789Z,12.75
2022-10-17T03:07:14.924Z,13.50
2022-10-17T03:09:42.716Z,12.85
2022-10-17T03:12:10.769Z,11.48
2022-10-17T03:14:38.573Z,13.93
2022-10-17T03:17:06.829Z,12.52
2022-10-17T03:19:34.538Z,13.05
2022-10-17T03:22:03.767Z,12.38
2022-10-17T03:24:31.677Z,12.68
2022-10-17T03:26:59.562Z,12.65
2022-10-17T03:29:27.297Z,12.63
2022-10-17T03:31:55.445Z,12.18
2022-10-17T03:34:23.258Z,12.45
2022-10-17T03:36:51.317Z,13.05
2022-10-17T03:39:20.483Z,11.27
2022-10-17T03:41:48.378Z,11.95
2022-10-17T03:44:16.706Z,13.13
2022-10-17T03:46:44.747Z,13.55
2022-10-17T03:49:12.642Z,13.68
2022-10-17T03:51:40.549Z,12.57
2022-10-17T03:54:08.441Z,12.85
2022-10-17T03:56:37.740Z,12.98
2022-10-17T03:59:05.673Z,13.10
2022-10-17T04:01:33.671Z,13.85
2022-10-17T04:04:01.706Z,13.60
2022-10-17T04:06:29.777Z,13.77
2022-10-17T04:08:57.687Z,13.18
2022-10-17T04:11:25.672Z,13.07
2022-10-17T04:13:56.446Z,13.40
2022-10-17T04:16:24.845Z,13.23
2022-10-17T04:18:55.361Z,13.55
2022-10-17T04:21:24.639Z,12.82
2022-10-17T04:23:55.439Z,13.18
2022-10-17T04:26:23.650Z,12.77
2022-10-17T04:28:51.984Z,12.30
2022-10-17T04:31:21.364Z,14.10
2022-10-17T04:33:50.829Z,12.95
2022-10-17T04:36:20.877Z,12.68
2022-10-17T04:38:48.749Z,12.13
2022-10-17T04:41:18.559Z,12.25
2022-10-17T04:43:50.140Z,13.52
2022-10-17T04:46:20.943Z,13.68
2022-10-17T04:48:48.670Z,12.90
2022-10-17T04:51:20.686Z,13.88
2022-10-17T04:53:51.114Z,13.40
2022-10-17T04:56:21.744Z,12.68
2022-10-17T04:58:50.065Z,13.77
2022-10-17T05:01:19.954Z,13.63
2022-10-17T05:03:49.432Z,13.15
2022-10-17T05:06:19.498Z,14.23
2022-10-17T05:08:47.731Z,13.10
2022-10-17T05:11:20.465Z,13.57
2022-10-17T05:13:52.097Z,13.95
2022-10-17T05:16:20.459Z,13.45
2022-10-17T05:18:52.933Z,12.73
2022-10-17T05:21:22.797Z,13.80
2022-10-17T05:23:50.901Z,12.23
2022-10-17T05:26:19.487Z,12.25
2022-10-17T05:28:47.854Z,12.38
2022-10-17T05:31:16.036Z,13.00
2022-10-17T05:33:43.796Z,12.93
2022-10-17T05:36:13.109Z,12.25
2022-10-17T05:38:40.844Z,11.98
2022-10-17T05:41:08.737Z,13.18
2022-10-17T05:43:36.649Z,14.52
2022-10-17T05:46:06.031Z,13.65
2022-10-17T05:48:34.287Z,14.13
2022-10-17T05:51:04.510Z,13.50
2022-10-17T05:53:35.993Z,13.50
2022-10-17T05:56:07.093Z,13.93
2022-10-17T05:58:53.251Z,13.07
2022-10-17T06:01:24.408Z,12.93
2022-10-17T06:03:52.220Z,12.52
2022-10-17T06:06:20.646Z,11.65
2022-10-17T06:08:49.850Z,12.43
2022-10-17T06:11:17.889Z,11.93
2022-10-17T06:13:45.658Z,12.00
2022-10-17T06:16:13.878Z,12.23
2022-10-17T06:18:41.648Z,12.23
2022-10-17T06:21:11.389Z,11.05
2022-10-17T06:23:39.449Z,10.65
2022-10-17T06:26:08.757Z,12.00
2022-10-17T06:28:37.483Z,10.18
2022-10-17T06:31:07.217Z,10.85
2022-10-17T06:33:35.518Z,12.15
2022-10-17T06:36:04.056Z,12.05
2022-10-17T06:38:31.979Z,12.18
2022-10-17T06:41:08.170Z,12.15
2022-10-17T06:43:38.047Z,11.25
2022-10-17T07:13:18.242Z,12.95
2022-10-17T07:20:56.373Z,11.70
2022-10-17T07:23:24.809Z,10.70
2022-10-17T07:36:42.439Z,11.05
2022-10-17T07:39:10.674Z,12.00
2022-10-17T07:41:38.462Z,10.82
2022-10-17T07:44:06.771Z,10.85
2022-10-17T07:46:34.672Z,11.70
2022-10-17T07:49:02.741Z,11.27
2022-10-17T07:51:30.455Z,10.27
2022-10-17T07:53:59.743Z,10.68
2022-10-17T07:56:29.513Z,10.82
2022-10-17T07:58:59.852Z,10.07
2022-10-17T08:01:30.518Z,10.23
2022-10-17T08:03:58.720Z,10.02
2022-10-17T08:06:26.446Z,10.30
2022-10-17T08:08:54.414Z,10.50
2022-10-17T08:11:25.259Z,10.20
2022-10-17T08:13:53.426Z,10.55
2022-10-17T08:16:21.283Z,9.82
2022-10-17T08:18:49.162Z,10.27
2022-10-17T08:21:16.878Z,10.23
2022-10-17T08:23:44.965Z,10.10
2022-10-17T08:26:16.788Z,10.20
2022-10-17T08:31:16.053Z,10.90
2022-10-17T08:33:43.957Z,10.40
2022-10-17T08:36:14.987Z,10.07
2022-10-17T08:38:43.894Z,9.87
2022-10-17T08:41:20.036Z,10.52
2022-10-17T08:44:04.112Z,10.68
2022-10-17T08:46:35.237Z,9.70
2022-10-17T08:49:12.049Z,10.02
2022-10-17T08:51:48.623Z,9.25
2022-10-17T08:54:20.923Z,9.88
2022-10-17T08:59:24.413Z,9.18
2022-10-17T09:02:01.619Z,9.80
2022-10-17T09:04:48.741Z,10.27
2022-10-17T09:07:23.286Z,9.70
2022-10-17T09:10:01.557Z,9.00
2022-10-17T09:12:39.546Z,9.68
2022-10-17T09:15:32.435Z,9.57
2022-10-17T09:18:04.207Z,9.73
2022-10-17T09:20:34.902Z,9.82
2022-10-17T09:23:07.890Z,9.10
2022-10-17T09:25:43.574Z,9.18
2022-10-17T09:28:18.252Z,9.40
2022-10-17T09:30:50.411Z,9.50
2022-10-17T09:33:34.746Z,9.70
2022-10-17T09:36:05.951Z,9.27
2022-10-17T09:38:39.737Z,9.25
2022-10-17T09:41:43.053Z,9.77
2022-10-17T09:44:15.546Z,8.68
2022-10-17T09:46:54.626Z,8.77
2022-10-17T09:49:29.942Z,9.68
2022-10-17T09:51:58.529Z,8.52
2022-10-17T09:54:30.672Z,9.25
2022-10-17T09:57:00.904Z,8.70
2022-10-17T09:59:34.900Z,9.45
2022-10-17T10:02:15.194Z,8.48
2022-10-17T10:05:09.577Z,8.82
2022-10-17T10:07:39.628Z,8.38
2022-10-17T10:10:24.305Z,7.68
2022-10-17T10:13:05.336Z,9.55
2022-10-17T10:15:36.988Z,8.53
2022-10-17T10:21:09.386Z,8.18
2022-10-17T10:23:40.466Z,8.63
2022-10-17T10:26:22.731Z,8.10
2022-10-17T10:28:55.961Z,7.53
2022-10-17T10:31:30.159Z,8.15
2022-10-17T10:34:02.821Z,6.80
2022-10-17T10:36:50.602Z,7.00
2022-10-17T10:39:33.917Z,8.05
2022-10-17T10:42:03.546Z,7.97
2022-10-17T10:44:34.033Z,7.00
2022-10-17T10:47:10.261Z,7.82
2022-10-17T10:49:40.521Z,7.30
2022-10-17T10:52:14.964Z,7.97
2022-10-17T10:54:51.721Z,7.43
2022-10-17T10:57:24.133Z,7.38
2022-10-17T10:59:58.994Z,6.90
2022-10-17T11:02:31.661Z,7.03
2022-10-17T11:05:05.049Z,7.95
2022-10-17T11:07:37.254Z,7.53
2022-10-17T11:10:15.508Z,7.22
2022-10-17T11:12:47.640Z,7.65
2022-10-17T11:15:21.582Z,7.38
2022-10-17T11:17:58.365Z,7.72
2022-10-17T11:20:37.669Z,7.63
2022-10-17T11:23:19.874Z,7.00
2022-10-17T11:25:50.990Z,7.97
2022-10-17T11:28:20.964Z,8.43
2022-10-17T11:30:52.680Z,7.20
2022-10-17T11:36:02.106Z,7.50
2022-10-17T11:38:41.937Z,7.18
2022-10-17T11:41:13.872Z,7.70
2022-10-17T11:43:46.974Z,8.02
2022-10-17T11:46:19.948Z,7.80
2022-10-17T11:48:58.403Z,6.70
2022-10-17T11:54:19.915Z,7.53
2022-10-17T11:56:59.819Z,7.57
2022-10-17T11:59:54.435Z,8.07
2022-10-17T12:02:33.941Z,6.97
2022-10-17T12:05:10.518Z,7.20
2022-10-17T12:07:46.323Z,6.57
2022-10-17T12:10:30.737Z,8.10
2022-10-17T12:12:58.730Z,7.57
2022-10-17T12:15:31.398Z,6.15
2022-10-17T12:18:02.584Z,7.63
2022-10-17T12:20:36.369Z,5.93
2022-10-17T12:23:24.983Z,7.45
2022-10-17T12:25:57.004Z,6.10
2022-10-17T12:28:31.495Z,5.78
2022-10-17T12:33:35.492Z,6.20
2022-10-17T12:36:46.759Z,6.03
2022-10-17T12:39:49.237Z,5.90
2022-10-17T12:42:34.478Z,5.90
2022-10-17T12:45:02.545Z,6.68
2022-10-17T12:47:39.890Z,6.53
2022-10-17T12:50:41.988Z,7.45
2022-10-17T12:53:19.228Z,5.40
2022-10-17T12:55:51.790Z,5.45
2022-10-17T12:58:19.685Z,6.03
2022-10-17T13:01:19.093Z,5.63
2022-10-17T13:03:45.182Z,5.18
2022-10-17T13:06:21.761Z,6.63
2022-10-17T13:09:01.030Z,6.07
2022-10-17T13:11:35.625Z,6.47
2022-10-17T13:14:11.669Z,6.15
2022-10-17T13:16:41.970Z,9.38
2022-10-17T13:19:16.548Z,7.03
2022-10-17T13:21:51.354Z,6.53
2022-10-17T13:24:24.275Z,6.20
2022-10-17T13:26:53.666Z,5.85
2022-10-17T13:29:23.399Z,6.18
2022-10-17T13:31:54.693Z,5.20
2022-10-17T13:34:24.751Z,5.50
2022-10-17T13:36:55.129Z,5.53
2022-10-17T13:39:38.229Z,5.55
2022-10-17T13:42:24.349Z,5.78
2022-10-17T13:44:52.957Z,6.03
2022-10-17T13:47:25.743Z,5.60
2022-10-17T13:49:55.619Z,5.95
2022-10-17T13:52:28.078Z,6.20
2022-10-17T13:55:06.789Z,5.25
2022-10-17T13:57:36.238Z,5.68
2022-10-17T14:00:11.491Z,5.80
2022-10-17T14:02:42.309Z,5.20
2022-10-17T14:05:19.024Z,5.43
2022-10-17T14:08:10.655Z,5.90
2022-10-17T14:10:41.343Z,5.65
2022-10-17T14:13:21.063Z,5.38
2022-10-17T14:15:56.022Z,5.45
2022-10-17T14:18:30.878Z,5.88
2022-10-17T14:23:53.843Z,5.40
2022-10-17T14:26:23.945Z,4.78
2022-10-17T14:29:05.902Z,5.20
2022-10-17T14:31:35.960Z,4.93
2022-10-17T14:34:05.921Z,5.07
2022-10-17T14:36:43.062Z,5.00
2022-10-17T14:39:21.316Z,6.80
2022-10-17T14:41:49.598Z,8.95
2022-10-17T14:44:25.595Z,8.85
2022-10-17T14:47:05.954Z,12.05
2022-10-17T14:49:41.997Z,10.98
2022-10-17T14:52:24.764Z,11.25
2022-10-17T14:54:53.188Z,11.07
2022-10-17T14:57:25.390Z,11.25
2022-10-17T14:59:56.155Z,10.43
2022-10-17T15:02:25.544Z,10.15
2022-10-17T15:04:53.679Z,9.90
2022-10-17T15:07:22.143Z,10.48
2022-10-17T15:09:53.513Z,12.43
2022-10-17T15:12:23.480Z,12.55
2022-10-17T15:14:52.545Z,13.88
2022-10-17T15:17:25.370Z,13.55
2022-10-17T15:19:54.140Z,12.77
2022-10-17T15:22:22.079Z,11.13
2022-10-17T15:24:50.089Z,8.77
2022-10-17T15:27:20.415Z,8.23
2022-10-17T15:29:49.486Z,9.87
2022-10-17T15:32:17.436Z,8.07
2022-10-17T15:34:47.168Z,8.75
2022-10-17T15:37:18.911Z,10.70
2022-10-17T15:39:53.368Z,9.07
2022-10-17T15:42:23.496Z,8.15
2022-10-17T15:44:51.496Z,8.02
2022-10-17T15:47:26.234Z,9.60
2022-10-17T15:49:56.428Z,11.52
2022-10-17T15:52:24.622Z,14.13
2022-10-17T15:54:52.924Z,13.73
2022-10-17T15:57:23.598Z,13.25
2022-10-17T15:59:52.626Z,25.77
2022-10-17T16:02:21.782Z,28.33
2022-10-17T16:04:51.084Z,21.35
2022-10-17T16:07:21.331Z,18.55
2022-10-17T16:09:49.366Z,11.40
2022-10-17T16:12:19.107Z,13.27
2022-10-17T16:14:47.116Z,14.00
2022-10-17T16:17:16.297Z,11.05
2022-10-17T16:19:44.854Z,12.07
2022-10-17T16:22:28.227Z,9.18
2022-10-17T16:24:59.092Z,10.43
2022-10-17T16:27:27.174Z,15.75
2022-10-17T16:29:55.051Z,10.05
2022-10-17T16:32:22.898Z,9.35
2022-10-17T16:34:50.758Z,9.57
2022-10-17T16:37:19.893Z,9.77
2022-10-17T16:39:52.203Z,9.40
2022-10-17T16:42:20.104Z,9.00
2022-10-17T16:44:48.178Z,9.45
2022-10-17T16:47:16.435Z,9.07
2022-10-17T16:49:45.362Z,10.90
2022-10-17T16:52:13.971Z,11.45
2022-10-17T16:54:43.474Z,13.55
2022-10-17T16:57:11.362Z,15.45
2022-10-17T16:59:39.553Z,13.13
2022-10-17T17:02:07.666Z,12.00
2022-10-17T17:04:35.610Z,15.45
2022-10-17T17:07:03.549Z,26.00
2022-10-17T17:09:31.476Z,63.05
2022-10-17T17:12:00.581Z,42.13
2022-10-17T17:14:28.726Z,47.75
2022-10-17T17:16:56.517Z,50.35
2022-10-17T17:19:24.439Z,37.25
2022-10-17T17:21:52.351Z,19.52
2022-10-17T17:24:21.952Z,13.63
2022-10-17T17:26:52.439Z,12.80
2022-10-17T17:29:22.792Z,13.60
2022-10-17T17:31:51.012Z,12.15
2022-10-17T17:34:18.920Z,11.73
2022-10-17T17:36:47.257Z,20.02
2022-10-17T17:39:16.655Z,23.85
2022-10-17T17:41:45.567Z,13.32
2022-10-17T17:44:16.747Z,11.60
2022-10-17T17:46:46.681Z,12.13
2022-10-17T17:49:15.394Z,10.88
2022-10-17T17:51:46.378Z,11.73
2022-10-17T17:54:14.854Z,11.77
2022-10-17T17:56:43.000Z,11.48
2022-10-17T17:59:12.737Z,11.73
2022-10-17T18:01:40.707Z,10.35
2022-10-17T18:04:10.729Z,11.73
2022-10-17T18:06:39.825Z,17.38
2022-10-17T18:09:09.010Z,13.15
2022-10-17T18:11:38.065Z,13.05
2022-10-17T18:14:08.566Z,11.43
2022-10-17T18:16:37.568Z,11.35
2022-10-17T18:19:08.785Z,12.40
2022-10-17T18:21:38.923Z,12.80
2022-10-17T18:24:07.475Z,12.75
2022-10-17T18:26:35.705Z,13.18
2022-10-17T18:29:04.623Z,13.98
2022-10-17T18:31:35.633Z,15.15
2022-10-17T18:34:05.276Z,15.07
2022-10-17T18:36:34.856Z,15.25
2022-10-17T18:39:05.646Z,14.90
2022-10-17T18:41:33.986Z,14.95
2022-10-17T18:44:02.864Z,14.93
2022-10-17T18:46:35.601Z,14.38
2022-10-17T18:49:04.365Z,15.43
2022-10-17T18:51:32.993Z,14.90
2022-10-17T18:54:02.581Z,15.18
2022-10-17T18:56:32.768Z,15.95
2022-10-17T18:59:00.679Z,15.88
2022-10-17T19:01:29.203Z,15.10
2022-10-17T19:03:59.467Z,17.20
2022-10-17T19:06:28.880Z,17.33
2022-10-17T19:08:56.907Z,17.58
2022-10-17T19:11:26.762Z,17.17
2022-10-17T19:13:58.073Z,18.52
2022-10-17T19:16:30.035Z,18.60
2022-10-17T19:18:59.824Z,18.65
2022-10-17T19:21:28.147Z,18.15
2022-10-17T19:23:58.576Z,16.70
2022-10-17T19:26:27.972Z,17.40
2022-10-17T19:28:57.369Z,16.65
2022-10-17T19:31:27.396Z,17.65
2022-10-17T19:33:56.387Z,16.42
2022-10-17T19:36:29.056Z,15.85
2022-10-17T19:39:01.440Z,17.83
2022-10-17T19:41:29.422Z,14.40
2022-10-17T19:43:58.979Z,15.23
2022-10-17T19:46:28.307Z,13.20
2022-10-17T19:48:56.842Z,13.45
2022-10-17T19:51:26.218Z,13.73
2022-10-17T19:53:56.234Z,11.60
2022-10-17T19:56:25.639Z,12.65
2022-10-17T19:58:55.641Z,10.93
2022-10-17T20:01:26.674Z,10.02
2022-10-17T20:03:55.169Z,11.20
2022-10-17T20:06:23.373Z,10.52
2022-10-17T20:08:51.657Z,8.95
2022-10-17T20:11:21.813Z,8.80
2022-10-17T20:13:50.606Z,8.63
2022-10-17T20:16:21.436Z,8.48
2022-10-17T20:18:51.893Z,8.40
2022-10-17T20:21:23.370Z,8.82
2022-10-17T20:23:51.597Z,8.02
2022-10-17T20:26:38.670Z,8.20
2022-10-17T20:29:11.083Z,9.23
2022-10-17T20:31:40.112Z,7.82
2022-10-17T20:34:12.509Z,8.98
2022-10-17T20:39:08.917Z,8.43
2022-10-17T20:41:37.116Z,8.38
2022-10-17T20:44:06.765Z,8.07
2022-10-17T20:46:37.655Z,8.70
2022-10-17T20:49:07.772Z,9.25
2022-10-17T20:51:36.901Z,8.00
2022-10-17T20:54:05.701Z,8.95
2022-10-17T20:56:35.290Z,7.68
2022-10-17T20:59:05.709Z,8.05
2022-10-17T21:01:36.144Z,8.30
2022-10-17T21:06:54.462Z,9.13
2022-10-17T21:09:22.865Z,10.75
2022-10-17T21:11:54.886Z,9.02
2022-10-17T21:14:24.117Z,10.73
2022-10-17T21:16:53.050Z,11.73
2022-10-17T21:19:22.270Z,12.38
2022-10-17T21:21:50.845Z,11.60
2022-10-17T21:24:20.835Z,11.10
2022-10-17T21:26:55.365Z,10.48
2022-10-17T21:29:24.637Z,11.23
2022-10-17T21:31:52.476Z,10.93
2022-10-17T21:34:22.105Z,11.32
2022-10-17T21:36:50.405Z,10.82
2022-10-17T21:39:20.054Z,10.15
2022-10-17T21:41:47.766Z,9.98
2022-10-17T21:44:17.845Z,11.73
2022-10-17T21:46:46.285Z,11.68
2022-10-17T21:49:16.386Z,11.27
2022-10-17T21:51:45.194Z,11.13
2022-10-17T21:54:13.304Z,11.73
2022-10-17T21:56:42.593Z,10.82
2022-10-17T21:59:11.763Z,9.02
2022-10-17T22:01:41.196Z,9.98
2022-10-17T22:04:13.160Z,9.35
2022-10-17T22:06:43.028Z,9.48
2022-10-17T22:09:14.146Z,8.52
2022-10-17T22:11:46.077Z,7.85
2022-10-17T22:14:15.963Z,8.52
2022-10-17T22:16:44.984Z,9.15
2022-10-17T22:19:14.341Z,8.88
2022-10-17T22:21:42.264Z,7.95
2022-10-17T22:24:13.771Z,9.07
2022-10-17T22:26:44.481Z,8.53
2022-10-17T22:29:13.513Z,7.55
2022-10-17T22:31:41.670Z,8.88
2022-10-17T22:34:11.345Z,8.50
2022-10-17T22:36:39.192Z,8.43
2022-10-17T22:39:07.473Z,8.07
2022-10-17T22:41:35.236Z,7.65
2022-10-17T22:44:05.330Z,8.57
2022-10-17T22:46:33.574Z,9.23
2022-10-17T22:49:01.568Z,7.93
2022-10-17T22:51:29.677Z,7.57
2022-10-17T22:53:57.741Z,8.75
2022-10-17T22:56:25.840Z,6.28
2022-10-17T22:58:54.025Z,6.80
2022-10-17T23:01:24.927Z,7.35
2022-10-17T23:03:53.925Z,6.93
2022-10-17T23:06:22.125Z,6.82
2022-10-17T23:08:50.543Z,6.32
2022-10-17T23:11:18.682Z,7.20
2022-10-17T23:13:46.660Z,6.57
2022-10-17T23:16:14.720Z,5.72
2022-10-17T23:18:44.615Z,4.38
2022-10-17T23:21:12.890Z,5.60
2022-10-17T23:23:40.824Z,5.57
2022-10-17T23:26:10.798Z,5.40
2022-10-17T23:28:39.454Z,8.55
2022-10-17T23:31:15.442Z,13.07
2022-10-17T23:33:46.581Z,14.38
2022-10-17T23:36:16.053Z,14.35
2022-10-17T23:38:45.581Z,13.48
2022-10-17T23:41:14.126Z,13.25
2022-10-17T23:43:42.111Z,11.00
2022-10-17T23:46:10.177Z,10.70
2022-10-17T23:48:38.895Z,11.48
2022-10-17T23:51:08.662Z,10.88
2022-10-17T23:53:37.088Z,11.55
2022-10-17T23:56:05.849Z,12.02
2022-10-17T23:58:33.773Z,12.00
